Time;durP1;ratioP1;P1;durP2;ratioP2;P2;SDS_P1;SDS_P2;PMS_P1;PMS_P2;Temp;Humidity;BMP_temperature;BMP_pressure;BME280_temperature;BME280_humidity;BME280_pressure;Samples;Min_cycle;Max_cycle;Signal;HPM_P1;HPM_P2
2021/11/20 00:06:24;;;;;;;4.73;2.40;;;;;;;;;;21264707;27;20475;-60
2021/11/20 00:16:27;;;;;;;4.77;2.53;;;;;;;;;;21262277;27;20086;-59
2021/11/20 00:26:33;;;;;;;6.30;2.85;;;;;;;;;;21261785;27;20407;-60
2021/11/20 00:36:36;;;;;;;5.47;2.58;;;;;;;;;;21259994;27;20146;-59
2021/11/20 00:46:38;;;;;;;4.93;2.88;;;;;;;;;;21259629;27;20043;-61
2021/11/20 00:56:41;;;;;;;7.65;3.25;;;;;;;;;;21259128;27;20062;-59
2021/11/20 01:06:43;;;;;;;5.13;2.83;;;;;;;;;;21257848;27;20047;-60
2021/11/20 01:16:46;;;;;;;3.55;2.60;;;;;;;;;;21257312;27;20118;-60
2021/11/20 01:26:48;;;;;;;11.43;5.70;;;;;;;;;;21256383;27;20047;-61
2021/11/20 01:36:52;;;;;;;6.00;2.42;;;;;;;;;;21256255;27;20047;-60
2021/11/20 01:46:56;;;;;;;5.18;2.70;;;;;;;;;;21254706;27;20100;-60
2021/11/20 01:56:59;;;;;;;3.67;2.15;;;;;;;;;;21254573;27;20058;-59
2021/11/20 02:07:21;;;;;;;5.80;2.45;;;;;;;;;;21253390;27;20054;-61
2021/11/20 02:17:27;;;;;;;4.45;2.20;;;;;;;;;;21251267;27;20437;-60
2021/11/20 02:27:35;;;;;;;3.92;1.90;;;;;;;;;;21251276;27;20051;-59
2021/11/20 02:37:38;;;;;;;5.65;2.20;;;;;;;;;;21250354;27;20054;-60
2021/11/20 02:47:41;;;;;;;3.83;2.25;;;;;;;;;;21250320;27;20047;-59
2021/11/20 02:57:44;;;;;;;4.35;2.20;;;;;;;;;;21231019;27;20083;-60
2021/11/20 03:07:46;;;;;;;3.67;2.50;;;;;;;;;;21248537;27;20043;-60
2021/11/20 03:17:52;;;;;;;4.38;2.85;;;;;;;;;;21248277;27;20195;-61
2021/11/20 03:28:00;;;;;;;5.07;2.63;;;;;;;;;;21256511;27;20055;-58
2021/11/20 03:38:05;;;;;;;4.97;2.30;;;;;;;;;;21248268;27;20500;-60
2021/11/20 03:48:09;;;;;;;5.43;2.67;;;;;;;;;;21264861;27;20295;-59
2021/11/20 03:58:13;;;;;;;4.78;2.55;;;;;;;;;;21264484;27;20473;-61
2021/11/20 04:08:16;;;;;;;5.03;2.70;;;;;;;;;;21245386;27;20051;-60
2021/11/20 04:18:19;;;;;;;4.97;2.38;;;;;;;;;;21262088;27;20047;-59
2021/11/20 04:28:23;;;;;;;5.75;2.88;;;;;;;;;;21261560;27;20047;-58
2021/11/20 04:38:27;;;;;;;5.15;2.60;;;;;;;;;;21259597;27;20043;-60
2021/11/20 04:48:38;;;;;;;3.38;2.00;;;;;;;;;;21259776;27;20047;-58
2021/11/20 04:58:41;;;;;;;4.30;2.20;;;;;;;;;;21258994;27;20058;-58
2021/11/20 05:08:44;;;;;;;6.15;2.60;;;;;;;;;;21257850;27;20043;-58
2021/11/20 05:18:47;;;;;;;4.70;2.05;;;;;;;;;;21257350;27;20090;-59
2021/11/20 05:39:04;;;;;;;6.68;2.33;;;;;;;;;;21256132;27;20479;-58
2021/11/20 05:49:07;;;;;;;4.10;2.17;;;;;;;;;;21254493;27;20074;-60
2021/11/20 05:59:10;;;;;;;4.72;2.03;;;;;;;;;;21235149;27;20077;-60
2021/11/20 06:09:14;;;;;;;4.82;2.20;;;;;;;;;;21252888;27;20043;-60
2021/11/20 06:19:16;;;;;;;7.47;3.10;;;;;;;;;;21252651;27;20055;-59
2021/11/20 06:29:18;;;;;;;3.45;2.35;;;;;;;;;;21252335;27;20556;-59
2021/11/20 06:39:20;;;;;;;2.72;1.80;;;;;;;;;;21232492;27;20075;-59
2021/11/20 06:49:22;;;;;;;4.03;2.35;;;;;;;;;;21249888;27;20043;-60
2021/11/20 07:09:26;;;;;;;3.05;2.05;;;;;;;;;;21249497;27;20509;-59
2021/11/20 07:19:30;;;;;;;4.30;2.50;;;;;;;;;;21249121;27;20107;-60
2021/11/20 07:29:32;;;;;;;3.85;2.22;;;;;;;;;;21248965;27;20140;-60
2021/11/20 07:39:36;;;;;;;5.78;2.90;;;;;;;;;;21248064;28;20083;-60
2021/11/20 07:49:43;;;;;;;9.32;2.67;;;;;;;;;;21247488;28;20047;-60
2021/11/20 07:59:46;;;;;;;4.32;2.70;;;;;;;;;;21247537;28;20059;-61
2021/11/20 08:09:48;;;;;;;6.40;2.83;;;;;;;;;;21246595;28;20047;-60
2021/11/20 08:19:50;;;;;;;6.38;2.90;;;;;;;;;;21260550;27;20419;-62
2021/11/20 08:29:51;;;;;;;7.25;2.90;;;;;;;;;;21260665;27;20050;-60
2021/11/20 08:39:56;;;;;;;3.95;2.40;;;;;;;;;;21258525;27;20049;-59
2021/11/20 08:49:58;;;;;;;5.57;2.72;;;;;;;;;;21258992;27;20047;-60
2021/11/20 09:00:01;;;;;;;4.90;2.72;;;;;;;;;;21258361;27;20587;-60
2021/11/20 09:10:09;;;;;;;5.68;3.25;;;;;;;;;;21238504;27;20055;-59
2021/11/20 09:20:14;;;;;;;7.50;3.15;;;;;;;;;;21179196;27;20040;-61
2021/11/20 09:30:21;;;;;;;6.82;3.78;;;;;;;;;;21171623;27;20066;-58
2021/11/20 09:40:28;;;;;;;5.00;3.17;;;;;;;;;;21169802;28;20109;-57
2021/11/20 09:50:32;;;;;;;10.27;3.72;;;;;;;;;;21169690;28;20063;-57
2021/11/20 10:00:40;;;;;;;9.30;3.03;;;;;;;;;;21167523;28;20051;-58
2021/11/20 10:10:57;;;;;;;7.18;3.17;;;;;;;;;;21167852;28;20044;-57
2021/11/20 10:21:25;;;;;;;4.43;2.97;;;;;;;;;;21165941;28;20134;-56
2021/11/20 10:31:27;;;;;;;5.53;3.03;;;;;;;;;;20987672;28;20048;-55
2021/11/20 10:41:35;;;;;;;6.07;2.88;;;;;;;;;;20986302;28;20048;-57
2021/11/20 10:51:56;;;;;;;5.88;2.85;;;;;;;;;;20986916;28;20181;-56
2021/11/20 11:02:12;;;;;;;5.32;2.90;;;;;;;;;;21010362;28;20106;-56
2021/11/20 11:12:14;;;;;;;;;;;;;;;;;;21078238;28;20085;-56
2021/11/20 11:22:35;;;;;;;5.60;2.80;;;;;;;;;;21077686;28;19966;-56
2021/11/20 11:32:41;;;;;;;6.70;3.13;;;;;;;;;;21146045;28;20113;-56
2021/11/20 11:42:44;;;;;;;8.02;3.78;;;;;;;;;;21161207;28;20062;-56
2021/11/20 11:52:51;;;;;;;5.43;3.15;;;;;;;;;;21171282;28;20044;-56
2021/11/20 12:02:55;;;;;;;6.50;3.42;;;;;;;;;;21178650;28;20051;-56
2021/11/20 12:13:04;;;;;;;7.60;3.50;;;;;;;;;;21177586;28;20100;-56
2021/11/20 12:23:26;;;;;;;7.35;4.65;;;;;;;;;;21174413;28;20073;-57
2021/11/20 12:33:33;;;;;;;9.30;4.55;;;;;;;;;;21175200;28;20128;-70
2021/11/20 12:44:00;;;;;;;9.80;3.88;;;;;;;;;;21174937;28;20055;-57
2021/11/20 12:54:32;;;;;;;7.28;4.47;;;;;;;;;;20996334;28;20052;-54
2021/11/20 13:04:44;;;;;;;7.68;4.35;;;;;;;;;;20982811;28;20044;-57
2021/11/20 13:15:06;;;;;;;6.78;3.78;;;;;;;;;;20994727;28;20078;-57
2021/11/20 13:25:12;;;;;;;8.13;4.97;;;;;;;;;;21045595;28;20055;-56
2021/11/20 13:35:17;;;;;;;6.28;4.22;;;;;;;;;;21169955;28;20075;-58
2021/11/20 13:45:21;;;;;;;7.40;3.95;;;;;;;;;;21169016;28;20039;-58
2021/11/20 13:55:25;;;;;;;11.98;5.50;;;;;;;;;;21167686;28;20050;-58
2021/11/20 14:05:34;;;;;;;10.70;5.10;;;;;;;;;;21167232;28;20043;-58
2021/11/20 14:15:47;;;;;;;6.68;3.58;;;;;;;;;;21165890;28;20479;-58
2021/11/20 14:25:51;;;;;;;10.95;5.10;;;;;;;;;;21166061;28;20511;-57
2021/11/20 14:35:57;;;;;;;6.68;3.80;;;;;;;;;;21165143;28;20066;-56
2021/11/20 14:46:12;;;;;;;4.95;2.38;;;;;;;;;;21165471;28;20047;-56
2021/11/20 14:56:16;;;;;;;6.90;3.90;;;;;;;;;;21164453;28;20047;-57
2021/11/20 15:06:20;;;;;;;8.07;2.85;;;;;;;;;;21163790;28;20047;-59
2021/11/20 15:16:23;;;;;;;6.57;3.38;;;;;;;;;;21162102;28;20051;-58
2021/11/20 15:26:25;;;;;;;4.82;2.55;;;;;;;;;;21163081;28;20480;-57
2021/11/20 15:36:27;;;;;;;5.38;2.40;;;;;;;;;;21161955;28;20044;-59
2021/11/20 15:46:30;;;;;;;6.22;3.00;;;;;;;;;;21161914;28;20047;-58
2021/11/20 15:56:32;;;;;;;6.68;2.97;;;;;;;;;;21160716;28;20416;-57
2021/11/20 16:06:34;;;;;;;4.97;2.90;;;;;;;;;;21160294;28;20071;-57
2021/11/20 16:16:35;;;;;;;5.45;3.05;;;;;;;;;;21161008;28;20502;-57
2021/11/20 16:26:38;;;;;;;5.65;3.40;;;;;;;;;;21160045;28;20101;-56
2021/11/20 16:36:41;;;;;;;6.45;3.78;;;;;;;;;;21167205;28;20454;-56
2021/11/20 16:46:45;;;;;;;7.03;4.40;;;;;;;;;;21157147;28;20164;-57
2021/11/20 16:56:49;;;;;;;6.55;3.13;;;;;;;;;;21173305;28;20499;-57
2021/11/20 17:06:51;;;;;;;5.95;3.00;;;;;;;;;;21172603;28;20039;-58
2021/11/20 17:16:53;;;;;;;7.70;3.40;;;;;;;;;;21171834;28;20055;-58
2021/11/20 17:26:56;;;;;;;7.22;4.90;;;;;;;;;;21170602;28;20054;-58
2021/11/20 17:37:00;;;;;;;;;;;;;;;;;;21170372;28;20503;-58
2021/11/20 17:47:02;;;;;;;7.25;4.32;;;;;;;;;;21169505;28;20375;-57
2021/11/20 17:57:05;;;;;;;8.55;4.15;;;;;;;;;;21168537;28;20044;-58
2021/11/20 18:07:07;;;;;;;9.30;3.70;;;;;;;;;;21167918;28;20476;-58
2021/11/20 18:17:12;;;;;;;9.40;4.10;;;;;;;;;;21167340;28;20079;-57
2021/11/20 18:27:14;;;;;;;7.80;4.43;;;;;;;;;;21143269;28;20052;-58
2021/11/20 18:37:17;;;;;;;6.95;3.55;;;;;;;;;;21080245;28;20139;-58
2021/11/20 18:47:19;;;;;;;6.40;3.80;;;;;;;;;;21081129;28;20105;-58
2021/11/20 18:57:21;;;;;;;10.15;3.97;;;;;;;;;;21077717;28;20079;-57
2021/11/20 19:07:27;;;;;;;7.35;5.25;;;;;;;;;;21078775;28;20133;-60
2021/11/20 19:17:29;;;;;;;11.77;6.45;;;;;;;;;;21058570;28;20047;-59
2021/11/20 19:27:32;;;;;;;7.32;5.03;;;;;;;;;;21101235;28;20071;-56
2021/11/20 19:37:34;;;;;;;6.90;4.72;;;;;;;;;;21159439;28;20173;-56
2021/11/20 19:47:39;;;;;;;10.07;4.10;;;;;;;;;;21159967;28;20075;-57
2021/11/20 19:57:43;;;;;;;9.65;4.93;;;;;;;;;;21159145;28;20126;-57
2021/11/20 20:07:45;;;;;;;8.63;4.50;;;;;;;;;;21160639;28;20051;-58
2021/11/20 20:17:48;;;;;;;7.93;4.45;;;;;;;;;;21174809;28;20053;-56
2021/11/20 20:27:51;;;;;;;9.93;5.38;;;;;;;;;;21145616;28;20052;-57
2021/11/20 20:37:54;;;;;;;10.20;5.55;;;;;;;;;;21091011;28;20056;-56
2021/11/20 20:47:57;;;;;;;8.27;5.82;;;;;;;;;;21090897;28;20055;-58
2021/11/20 20:57:59;;;;;;;6.82;4.90;;;;;;;;;;21088937;28;20048;-56
2021/11/20 21:08:01;;;;;;;9.07;4.80;;;;;;;;;;21089215;28;20104;-60
2021/11/20 21:18:05;;;;;;;7.82;4.13;;;;;;;;;;21087454;28;20411;-58
2021/11/20 21:28:08;;;;;;;10.00;4.53;;;;;;;;;;21117383;28;20059;-57
2021/11/20 21:38:12;;;;;;;8.90;4.90;;;;;;;;;;21170297;28;20051;-56
2021/11/20 21:48:15;;;;;;;10.35;6.53;;;;;;;;;;21169792;28;20043;-58
2021/11/20 21:58:17;;;;;;;11.70;6.72;;;;;;;;;;21168923;28;20051;-59
2021/11/20 22:08:20;;;;;;;10.30;6.30;;;;;;;;;;21167651;28;20047;-58
2021/11/20 22:18:22;;;;;;;12.05;5.22;;;;;;;;;;21167134;28;20047;-59
2021/11/20 22:28:24;;;;;;;8.23;5.32;;;;;;;;;;21164889;28;20109;-59
2021/11/20 22:38:28;;;;;;;9.93;5.82;;;;;;;;;;21165486;28;20130;-58
2021/11/20 22:48:31;;;;;;;13.05;4.18;;;;;;;;;;21165744;28;20399;-59
2021/11/20 22:58:33;;;;;;;7.90;4.55;;;;;;;;;;21161885;28;20079;-56
2021/11/20 23:08:36;;;;;;;7.07;4.28;;;;;;;;;;21163017;28;20044;-58
2021/11/20 23:18:38;;;;;;;12.80;6.70;;;;;;;;;;21162816;28;20458;-57
2021/11/20 23:28:42;;;;;;;8.70;4.80;;;;;;;;;;21162569;28;20139;-58
2021/11/20 23:38:45;;;;;;;5.45;3.00;;;;;;;;;;21161191;28;20047;-58
2021/11/20 23:48:47;;;;;;;6.28;3.95;;;;;;;;;;21173820;28;20075;-57
2021/11/20 23:58:51;;;;;;;6.47;3.88;;;;;;;;;;21178218;28;20052;-57
